Time;durP1;ratioP1;P1;durP2;ratioP2;P2;SDS_P1;SDS_P2;PMS_P1;PMS_P2;Temp;Humidity;BMP_temperature;BMP_pressure;BME280_temperature;BME280_humidity;BME280_pressure;Samples;Min_cycle;Max_cycle;Signal;HPM_P1;HPM_P2
2022/12/27 00:01:32;;;;;;;;;13.67;8.00;;;;;8.49;64.21;102413.34;4973308;28;45342;-50
2022/12/27 00:03:57;;;;;;;;;10.00;4.67;;;;;8.48;64.34;102416.94;4973560;28;45292;-48
2022/12/27 00:06:25;;;;;;;;;9.67;6.67;;;;;8.49;63.91;102416.84;4973534;28;47101;-59
2022/12/27 00:08:51;;;;;;;;;9.33;5.33;;;;;8.49;64.53;102421.28;4973600;28;45390;-62
2022/12/27 00:11:19;;;;;;;;;5.67;4.33;;;;;8.47;64.06;102425.84;4973362;28;45437;-57
2022/12/27 00:13:45;;;;;;;;;6.33;6.00;;;;;8.46;64.04;102424.13;4975323;28;45564;-46
2022/12/27 00:16:15;;;;;;;;;13.33;10.33;;;;;8.44;64.31;102426.88;4972877;28;46127;-48
2022/12/27 00:18:41;;;;;;;;;8.33;8.00;;;;;8.41;63.74;102423.56;4973290;28;45544;-47
2022/12/27 00:21:09;;;;;;;;;12.00;9.33;;;;;8.36;64.73;102422.94;4973533;28;45385;-50
2022/12/27 00:23:37;;;;;;;;;11.33;9.00;;;;;8.28;64.38;102423.41;4973473;28;45537;-49
2022/12/27 00:26:05;;;;;;;;;8.33;8.33;;;;;8.29;64.99;102441.00;4973095;28;46395;-48
2022/12/27 00:28:32;;;;;;;;;6.67;6.00;;;;;8.17;64.81;102415.22;4973327;28;45342;-51
2022/12/27 00:30:58;;;;;;;;;12.67;7.33;;;;;8.20;65.00;102426.50;4972984;28;45456;-46
2022/12/27 00:33:25;;;;;;;;;12.67;8.00;;;;;8.27;64.54;102434.94;4973279;28;45256;-47
2022/12/27 00:35:50;;;;;;;;;5.67;5.33;;;;;8.22;65.07;102434.38;4972967;28;45296;-49
2022/12/27 00:38:15;;;;;;;;;10.67;7.67;;;;;8.25;64.35;102442.97;4972773;28;45408;-48
2022/12/27 00:40:41;;;;;;;;;16.33;10.00;;;;;8.24;64.82;102441.28;4973082;28;45755;-46
2022/12/27 00:43:06;;;;;;;;;9.33;7.00;;;;;8.24;64.73;102435.97;4972998;28;45224;-45
2022/12/27 00:45:32;;;;;;;;;13.67;12.67;;;;;8.22;65.61;102435.22;4973634;28;45579;-48
2022/12/27 00:47:57;;;;;;;;;6.00;3.67;;;;;8.22;65.34;102437.03;4975766;28;50453;-50
2022/12/27 00:50:22;;;;;;;;;9.00;9.00;;;;;8.20;65.51;102441.53;4977573;28;45374;-49
2022/12/27 00:52:48;;;;;;;;;19.50;13.25;;;;;8.19;65.24;102442.50;4976103;28;45398;-46
2022/12/27 00:55:14;;;;;;;;;10.67;9.33;;;;;8.20;65.36;102450.34;4975852;28;46267;-58
2022/12/27 00:57:39;;;;;;;;;9.00;9.00;;;;;8.20;65.57;102449.50;4976101;28;45192;-49
2022/12/27 01:00:05;;;;;;;;;9.75;9.75;;;;;8.20;65.74;102447.69;4975750;28;45624;-48
2022/12/27 01:02:30;;;;;;;;;10.25;9.00;;;;;8.18;64.94;102440.81;4975700;28;45538;-50
2022/12/27 01:04:56;;;;;;;;;9.00;7.00;;;;;8.15;64.82;102452.41;4975856;28;46274;-45
2022/12/27 01:07:22;;;;;;;;;14.50;8.00;;;;;8.13;65.81;102446.38;4976196;28;45332;-45
2022/12/27 01:09:47;;;;;;;;;10.25;10.25;;;;;8.09;65.64;102457.22;4975995;28;45403;-49
2022/12/27 01:12:13;;;;;;;;;14.00;9.00;;;;;8.08;65.91;102452.84;4975673;28;45376;-58
2022/12/27 01:14:38;;;;;;;;;9.75;9.00;;;;;8.08;66.36;102452.84;4975615;28;45500;-46
2022/12/27 01:17:04;;;;;;;;;13.75;10.50;;;;;8.07;65.78;102459.97;4975738;28;45366;-60
2022/12/27 01:19:29;;;;;;;;;13.00;10.00;;;;;8.08;66.97;102458.16;4975630;28;45392;-61
2022/12/27 01:21:54;;;;;;;;;12.50;9.25;;;;;8.06;66.64;102458.25;4976018;28;45495;-54
2022/12/27 01:24:20;;;;;;;;;11.00;9.50;;;;;8.05;66.34;102456.56;4975716;28;45354;-59
2022/12/27 01:26:45;;;;;;;;;9.00;8.00;;;;;7.96;65.43;102436.75;4975694;28;45353;-48
2022/12/27 01:29:12;;;;;;;;;9.00;6.00;;;;;7.97;66.02;102442.91;4975944;28;45466;-59
2022/12/27 01:31:37;;;;;;;;;5.33;5.00;;;;;8.06;66.30;102457.41;4975656;28;45249;-46
2022/12/27 01:34:03;;;;;;;;;4.67;4.00;;;;;7.94;66.38;102438.59;4975293;28;46280;-50
2022/12/27 01:36:30;;;;;;;;;9.25;8.00;;;;;7.96;66.09;102441.16;4975483;28;45783;-46
2022/12/27 01:38:57;;;;;;;;;5.33;5.00;;;;;8.05;66.80;102459.22;4975755;28;45378;-46
2022/12/27 01:44:50;;;;;;;;;10.67;5.00;;;;;8.07;67.08;102462.59;4975035;28;45852;-49
2022/12/27 01:47:39;;;;;;;;;8.33;2.67;;;;;8.09;66.49;102466.03;4975062;28;45347;-48
2022/12/27 01:50:41;;;;;;;;;7.67;6.00;;;;;8.08;66.52;102466.97;4974999;28;45462;-46
2022/12/27 01:53:16;;;;;;;;;4.00;1.50;;;;;8.08;66.30;102472.25;4975446;28;45428;-46
2022/12/27 01:56:01;;;;;;;;;5.25;5.25;;;;;8.08;65.96;102472.25;4975040;28;46437;-52
2022/12/27 01:58:37;;;;;;;;;9.00;6.50;;;;;8.08;66.16;102480.22;4973970;28;45307;-50
2022/12/27 02:01:04;;;;;;;;;5.00;5.00;;;;;8.02;66.62;102487.69;4975246;28;45265;-45
2022/12/27 02:03:34;;;;;;;;;10.33;3.67;;;;;8.00;66.91;102495.69;4975259;28;45513;-48
2022/12/27 02:06:02;;;;;;;;;6.00;5.00;;;;;7.90;65.95;102468.03;4974984;28;45373;-49
2022/12/27 02:08:47;;;;;;;;;8.67;6.67;;;;;8.02;66.27;102483.22;4975082;28;45306;-46
2022/12/27 02:11:14;;;;;;;;;7.33;4.00;;;;;8.05;66.35;102490.13;4975001;28;45351;-48
2022/12/27 02:13:43;;;;;;;;;8.00;5.50;;;;;8.00;66.32;102485.94;4975298;28;45324;-49
2022/12/27 02:16:11;;;;;;;;;6.00;3.33;;;;;7.99;66.86;102494.84;4974765;28;45349;-49
2022/12/27 02:18:36;;;;;;;;;6.67;5.33;;;;;8.02;66.73;102493.84;4974852;28;45347;-50
2022/12/27 02:21:37;;;;;;;;;5.00;4.00;;;;;7.99;67.15;102494.84;4974726;28;45349;-53
2022/12/27 02:24:29;;;;;;;;;5.00;5.00;;;;;7.63;67.17;102431.56;4974992;28;45515;-45
2022/12/27 02:27:32;;;;;;;;;11.50;6.50;;;;;8.02;67.15;102498.28;4974692;28;46176;-47
2022/12/27 02:30:02;;;;;;;;;5.33;2.00;;;;;8.02;67.39;102490.31;4974848;28;45317;-45
2022/12/27 02:32:57;;;;;;;;;5.50;4.00;;;;;8.00;66.42;102490.41;4974609;28;45369;-46
2022/12/27 02:35:30;;;;;;;;;5.50;2.75;;;;;7.99;67.10;102486.91;4953244;28;45498;-49
2022/12/27 02:38:08;;;;;;;;;1.00;1.00;;;;;7.97;67.19;102478.19;4952868;28;47001;-47
2022/12/27 02:55:24;;;;;;;;;2.00;2.00;;;;;7.98;67.51;102469.28;4952971;28;45498;-49
2022/12/27 02:58:32;;;;;;;;;5.75;5.00;;;;;7.96;67.60;102480.91;4953328;28;45548;-50
2022/12/27 03:04:21;;;;;;;;;8.50;5.00;;;;;7.92;67.48;102484.69;4952511;28;45449;-52
2022/12/27 03:07:20;;;;;;;;;6.00;5.00;;;;;7.90;67.49;102492.72;4952665;28;45395;-45
2022/12/27 03:15:54;;;;;;;;;4.33;4.00;;;;;7.87;68.18;102497.34;4973979;28;45361;-51
2022/12/27 03:18:22;;;;;;;;;4.75;4.75;;;;;7.85;67.76;102496.59;4974573;28;45371;-50
2022/12/27 03:26:21;;;;;;;;;3.50;3.50;;;;;7.85;67.78;102488.63;4973980;28;45447;-48
2022/12/27 03:34:34;;;;;;;;;6.00;2.00;;;;;7.83;67.88;102498.44;4974028;28;45371;-47
2022/12/27 03:43:44;;;;;;;;;6.00;6.00;;;;;7.82;68.50;102508.19;4973892;28;45452;-47
2022/12/27 03:46:34;;;;;;;;;8.25;5.50;;;;;7.77;68.10;102514.69;4973315;28;46362;-54
2022/12/27 03:49:24;;;;;;;;;4.75;4.75;;;;;7.56;68.38;102479.66;4973697;28;45574;-50
2022/12/27 03:52:10;;;;;;;;;6.75;5.75;;;;;7.67;67.89;102501.97;4973647;28;45353;-48
2022/12/27 03:54:41;;;;;;;;;10.00;3.25;;;;;7.66;68.58;102505.53;4973962;28;45326;-53
2022/12/27 03:57:10;;;;;;;;;7.00;3.00;;;;;7.63;68.40;102507.53;4973388;28;46191;-50
2022/12/27 03:59:36;;;;;;;;;5.00;5.00;;;;;7.61;68.51;102498.78;4973674;28;45400;-50
2022/12/27 04:02:03;;;;;;;;;6.00;6.00;;;;;7.58;68.58;102497.16;4973415;28;45475;-48
2022/12/27 04:04:28;;;;;;;;;6.00;4.75;;;;;7.54;68.99;102490.31;4973624;28;47438;-51
2022/12/27 04:06:54;;;;;;;;;9.00;6.00;;;;;7.54;69.09;102495.59;4973580;28;45953;-48
2022/12/27 04:36:40;;;;;;;;;11.50;5.75;;;;;7.56;68.93;102501.69;4976376;28;45494;-48
2022/12/27 04:39:05;;;;;;;;;5.00;5.00;;;;;7.52;69.82;102489.56;4975932;28;46308;-47
2022/12/27 04:55:26;;;;;;;;;10.25;9.00;;;;;7.48;70.03;102501.25;4975908;28;45316;-46
2022/12/27 04:57:52;;;;;;;;;8.00;8.00;;;;;7.46;69.24;102500.50;4976411;28;45548;-46
2022/12/27 05:03:08;;;;;;;;;9.00;6.00;;;;;7.32;69.96;102497.72;4975756;28;45368;-46
2022/12/27 05:05:36;;;;;;;;;8.00;8.00;;;;;7.28;69.94;102501.47;4976009;28;45270;-48
2022/12/27 05:16:14;;;;;;;;;9.50;9.50;;;;;7.02;70.57;102490.47;4975956;28;45469;-46
2022/12/27 05:18:40;;;;;;;;;9.75;9.00;;;;;7.05;70.70;102500.91;4976034;28;45470;-49
2022/12/27 05:21:06;;;;;;;;;9.00;8.75;;;;;7.04;71.05;102498.34;4975654;28;46007;-49
2022/12/27 05:26:24;;;;;;;;;9.25;9.00;;;;;7.09;70.72;102494.53;4975947;28;45391;-48
2022/12/27 05:28:51;;;;;;;;;8.75;8.75;;;;;7.02;71.30;102469.31;4976230;28;45348;-46
2022/12/27 05:31:17;;;;;;;;;8.75;8.25;;;;;7.16;70.43;102497.69;4976031;28;46103;-47
2022/12/27 05:33:42;;;;;;;;;11.25;8.00;;;;;7.11;70.76;102490.00;4975751;28;45296;-46
2022/12/27 05:36:08;;;;;;;;;13.75;12.00;;;;;7.10;70.58;102498.03;4975796;28;45398;-47
2022/12/27 05:38:34;;;;;;;;;10.25;10.25;;;;;7.08;71.69;102494.59;4976075;28;45398;-45
2022/12/27 05:41:01;;;;;;;;;14.25;9.75;;;;;7.05;71.14;102497.41;4975593;28;46544;-45
2022/12/27 05:43:27;;;;;;;;;8.75;8.75;;;;;7.01;71.29;102494.06;4975830;28;45255;-49
2022/12/27 05:45:54;;;;;;;;;10.00;10.00;;;;;6.97;71.46;102500.47;4975669;28;45229;-49
2022/12/27 05:48:20;;;;;;;;;11.25;8.00;;;;;6.88;71.37;102496.50;4975464;28;45248;-47
2022/12/27 05:50:46;;;;;;;;;10.50;10.50;;;;;6.77;71.46;102490.91;4975503;28;45299;-47
2022/12/27 05:53:11;;;;;;;;;12.75;9.75;;;;;6.79;71.22;102493.50;4977308;27;45414;-49
2022/12/27 05:55:36;;;;;;;;;13.00;13.00;;;;;6.75;72.52;102491.00;4975508;28;45322;-48
2022/12/27 05:58:01;;;;;;;;;13.75;11.25;;;;;6.77;72.61;102493.56;4975535;28;45366;-48
2022/12/27 06:00:27;;;;;;;;;14.75;12.25;;;;;6.72;72.77;102485.00;4975033;28;46165;-47
2022/12/27 06:02:52;;;;;;;;;13.25;12.00;;;;;6.67;72.74;102472.03;4975195;28;45656;-46
2022/12/27 06:05:17;;;;;;;;;12.25;10.75;;;;;6.68;72.71;102468.44;4975203;28;45440;-46
2022/12/27 06:07:43;;;;;;;;;13.50;9.50;;;;;6.73;72.66;102470.84;4975500;28;45263;-47
2022/12/27 06:10:09;;;;;;;;;16.25;12.00;;;;;6.74;73.00;102476.06;4975107;28;45421;-47
2022/12/27 06:12:35;;;;;;;;;14.50;13.00;;;;;6.62;72.00;102455.53;4975033;28;45407;-47
2022/12/27 06:15:00;;;;;;;;;15.00;12.50;;;;;6.73;73.03;102474.34;4975417;28;45403;-48
2022/12/27 06:17:26;;;;;;;;;13.75;12.50;;;;;6.72;72.46;102475.28;4975290;28;45585;-47
2022/12/27 06:19:51;;;;;;;;;12.00;8.00;;;;;6.77;72.68;102476.84;4975026;28;45350;-50
2022/12/27 06:22:17;;;;;;;;;9.25;8.50;;;;;6.77;72.35;102479.47;4974890;28;45335;-46
2022/12/27 06:24:42;;;;;;;;;9.75;9.25;;;;;6.74;72.69;102481.38;4976723;27;45218;-46
2022/12/27 06:27:07;;;;;;;;;12.50;12.25;;;;;6.73;72.33;102484.91;4975469;28;45207;-46
2022/12/27 06:29:33;;;;;;;;;17.00;11.75;;;;;6.72;71.70;102482.38;4974734;28;46255;-45
2022/12/27 06:31:58;;;;;;;;;17.75;15.50;;;;;6.61;72.79;102468.81;4974860;28;45463;-50
2022/12/27 06:34:24;;;;;;;;;20.50;16.00;;;;;6.59;72.60;102463.63;4975167;28;45269;-49
2022/12/27 06:36:50;;;;;;;;;19.25;14.50;;;;;6.61;72.86;102477.59;4973846;28;45731;-45
2022/12/27 06:39:19;;;;;;;;;13.25;11.00;;;;;6.61;72.81;102477.59;4975040;28;46229;-54
2022/12/27 06:41:45;;;;;;;;;15.25;13.00;;;;;6.61;72.88;102472.31;4975787;28;45267;-50
2022/12/27 06:44:10;;;;;;;;;14.00;11.00;;;;;6.61;73.21;102480.25;4974721;28;45432;-49
2022/12/27 06:46:36;;;;;;;;;8.00;5.75;;;;;6.64;73.01;102489.84;4975754;28;45434;-51
2022/12/27 06:49:02;;;;;;;;;12.00;12.00;;;;;6.65;73.35;102486.25;4974513;28;47271;-51
2022/12/27 06:51:28;;;;;;;;;12.75;9.75;;;;;6.68;73.26;102476.38;4974654;28;45391;-49
2022/12/27 06:53:53;;;;;;;;;10.25;9.00;;;;;6.72;73.08;102474.44;4974704;28;45299;-46
2022/12/27 06:56:21;;;;;;;;;11.75;5.75;;;;;6.75;72.67;102474.28;4974578;28;45425;-47
2022/12/27 06:58:47;;;;;;;;;15.25;10.50;;;;;6.75;72.76;102472.47;4974656;28;47301;-54
2022/12/27 07:01:24;;;;;;;;;7.75;6.75;;;;;6.78;72.34;102468.81;4974388;28;45335;-59
2022/12/27 07:03:54;;;;;;;;;10.00;10.00;;;;;6.81;72.23;102468.66;4974319;28;45295;-51
2022/12/27 07:06:20;;;;;;;;;13.50;12.25;;;;;6.82;72.30;102467.72;4974710;28;45485;-47
2022/12/27 07:08:46;;;;;;;;;7.00;5.00;;;;;6.84;72.98;102475.59;4974008;28;46110;-45
2022/12/27 07:11:13;;;;;;;;;10.75;9.50;;;;;6.89;72.86;102481.47;4974049;28;45327;-46
2022/12/27 07:13:41;;;;;;;;;10.75;7.00;;;;;6.84;72.49;102463.22;4974511;28;45366;-48
2022/12/27 07:16:09;;;;;;;;;11.25;11.25;;;;;6.89;72.47;102478.84;4974377;28;45472;-50
2022/12/27 07:18:35;;;;;;;;;9.50;8.50;;;;;6.86;72.29;102471.91;4973998;28;46294;-47
2022/12/27 07:21:08;;;;;;;;;8.25;8.25;;;;;6.91;72.68;102484.88;4974127;28;45178;-58
2022/12/27 07:23:34;;;;;;;;;11.50;8.00;;;;;6.90;71.89;102496.41;4974142;28;45200;-47
2022/12/27 07:26:04;;;;;;;;;13.25;10.50;;;;;6.86;72.64;102493.06;4974449;28;45289;-55
2022/12/27 07:28:30;;;;;;;;;12.00;8.75;;;;;6.91;72.35;102499.00;4973899;28;46220;-58
2022/12/27 07:30:56;;;;;;;;;12.75;9.00;;;;;6.92;72.28;102499.84;4973781;28;45311;-56
2022/12/27 07:33:21;;;;;;;;;12.00;9.25;;;;;6.91;72.05;102504.28;4974315;28;45338;-56
2022/12/27 07:35:47;;;;;;;;;12.50;6.25;;;;;6.86;72.54;102492.22;4974253;28;45357;-60
2022/12/27 07:38:12;;;;;;;;;15.75;8.00;;;;;6.89;72.28;102497.34;4973926;28;46432;-59
2022/12/27 07:40:37;;;;;;;;;11.50;8.50;;;;;6.96;71.89;102507.53;4975102;28;47028;-60
2022/12/27 07:43:03;;;;;;;;;7.75;6.75;;;;;6.99;72.28;102495.94;4973822;28;45218;-59
2022/12/27 07:45:28;;;;;;;;;13.00;8.50;;;;;6.96;71.97;102496.13;4974299;28;45230;-51
2022/12/27 07:47:53;;;;;;;;;17.75;8.75;;;;;7.01;72.86;102494.06;4973616;28;46135;-60
2022/12/27 07:50:19;;;;;;;;;12.50;11.50;;;;;7.04;72.76;102503.63;4973835;28;45346;-47
2022/12/27 07:52:44;;;;;;;;;13.00;9.00;;;;;6.99;71.78;102493.28;4973963;28;45362;-50
2022/12/27 07:55:09;;;;;;;;;13.00;9.00;;;;;7.02;71.66;102497.56;4974522;28;45201;-46
2022/12/27 07:57:35;;;;;;;;;11.25;8.00;;;;;7.03;72.47;102496.63;4976801;28;45300;-46
2022/12/27 08:00:00;;;;;;;;;8.25;6.50;;;;;7.02;71.70;102503.72;4976288;28;48889;-44
2022/12/27 08:02:25;;;;;;;;;8.00;6.00;;;;;7.03;71.78;102501.91;4976466;28;45412;-46
2022/12/27 08:04:51;;;;;;;;;8.25;5.75;;;;;7.03;71.75;102499.28;4976992;28;45212;-51
2022/12/27 08:07:18;;;;;;;;;7.25;5.75;;;;;7.03;71.50;102504.56;4976359;28;46108;-46
2022/12/27 08:09:45;;;;;;;;;8.00;8.00;;;;;6.91;71.99;102487.53;4976708;28;45422;-47
2022/12/27 08:12:14;;;;;;;;;12.75;8.75;;;;;7.02;72.00;102500.22;4976366;28;45397;-50
2022/12/27 08:14:40;;;;;;;;;9.50;9.00;;;;;7.01;72.02;102502.00;4976877;28;45258;-46
2022/12/27 08:17:19;;;;;;;;;14.00;11.00;;;;;7.03;71.81;102493.97;4976367;28;47011;-45
2022/12/27 08:19:45;;;;;;;;;14.25;13.25;;;;;6.96;71.68;102501.41;4976682;28;45395;-47
2022/12/27 08:22:11;;;;;;;;;15.75;12.75;;;;;6.97;71.96;102508.41;4976615;28;45360;-48
2022/12/27 08:24:37;;;;;;;;;16.50;14.75;;;;;6.93;72.70;102513.00;4976727;28;45567;-46
2022/12/27 08:27:02;;;;;;;;;15.00;14.25;;;;;6.90;72.07;102510.50;4976341;28;45934;-45
2022/12/27 08:29:28;;;;;;;;;18.50;14.50;;;;;6.83;71.90;102502.97;4976448;28;45421;-45
2022/12/27 08:31:53;;;;;;;;;16.00;16.00;;;;;6.90;72.60;102512.28;4976732;28;45338;-45
2022/12/27 08:34:18;;;;;;;;;44.25;32.75;;;;;6.85;72.76;102511.69;4977850;28;45477;-46
2022/12/27 08:36:44;;;;;;;;;18.75;16.00;;;;;6.84;72.18;102517.91;4976301;28;45417;-47
2022/12/27 08:39:10;;;;;;;;;16.25;14.50;;;;;6.83;72.52;102522.34;4976319;28;45274;-45
2022/12/27 08:41:36;;;;;;;;;18.50;15.75;;;;;6.79;72.95;102522.59;4976253;28;45289;-47
2022/12/27 08:44:01;;;;;;;;;16.50;15.00;;;;;6.80;72.73;102525.16;4976235;28;45357;-48
2022/12/27 08:46:27;;;;;;;;;21.75;12.75;;;;;6.77;71.91;102524.44;4976210;28;45396;-46
2022/12/27 08:48:52;;;;;;;;;15.75;12.50;;;;;6.79;72.64;102533.16;4975558;28;45288;-46
2022/12/27 08:51:18;;;;;;;;;19.50;15.50;;;;;6.74;72.95;102533.38;4975485;28;45253;-50
2022/12/27 08:53:43;;;;;;;;;19.00;12.75;;;;;6.71;73.15;102521.19;4975324;28;45352;-47
2022/12/27 08:56:09;;;;;;;;;16.25;15.00;;;;;6.63;72.84;102512.78;4974819;28;45349;-46
2022/12/27 08:58:34;;;;;;;;;17.50;12.00;;;;;6.74;73.37;102523.69;4975028;28;45370;-45
2022/12/27 09:01:05;;;;;;;;;16.75;13.75;;;;;6.74;73.10;102528.09;4975167;28;45349;-47
2022/12/27 09:03:30;;;;;;;;;21.50;12.00;;;;;6.74;72.96;102536.91;4974889;28;45447;-45
2022/12/27 09:06:09;;;;;;;;;12.75;10.00;;;;;6.75;72.51;102535.97;4974327;28;46064;-48
2022/12/27 09:08:34;;;;;;;;;15.25;13.25;;;;;6.69;72.68;102524.81;4974743;28;45446;-51
2022/12/27 09:11:12;;;;;;;;;13.75;13.75;;;;;6.80;73.39;102540.16;4974882;28;45317;-48
2022/12/27 09:13:38;;;;;;;;;15.75;13.25;;;;;6.80;73.02;102534.88;4974974;28;45352;-49
2022/12/27 09:16:24;;;;;;;;;13.75;12.00;;;;;6.83;73.08;102545.31;4974537;28;45541;-49
2022/12/27 09:18:51;;;;;;;;;21.00;14.25;;;;;6.88;72.55;102545.91;4974660;28;45375;-48
2022/12/27 09:21:18;;;;;;;;;19.75;15.75;;;;;6.92;72.85;102544.84;4974729;28;45452;-48
2022/12/27 09:23:44;;;;;;;;;14.25;12.75;;;;;6.95;72.23;102547.28;4974504;28;45457;-53
2022/12/27 09:26:12;;;;;;;;;19.00;15.25;;;;;6.99;73.05;102544.44;4974307;28;47385;-46
2022/12/27 09:28:38;;;;;;;;;15.50;13.00;;;;;7.08;72.67;102531.63;4974187;28;45383;-48
2022/12/27 09:31:04;;;;;;;;;16.25;10.50;;;;;7.13;72.41;102543.72;4974503;28;45320;-47
2022/12/27 09:33:30;;;;;;;;;17.50;13.00;;;;;7.13;71.71;102534.91;4974616;28;45248;-46
2022/12/27 09:36:05;;;;;;;;;23.50;17.75;;;;;7.24;72.43;102543.97;4974064;28;46302;-48
2022/12/27 09:38:31;;;;;;;;;17.75;12.50;;;;;7.34;71.73;102538.22;4974008;28;45881;-45
2022/12/27 09:40:59;;;;;;;;;16.50;13.00;;;;;7.31;71.65;102522.50;4974326;28;45492;-49
2022/12/27 09:43:57;;;;;;;;;18.75;16.00;;;;;7.66;71.21;102544.41;4974524;28;45446;-47
2022/12/27 09:46:52;;;;;;;;;22.25;16.75;;;;;7.93;71.10;102557.97;4974137;28;46407;-48
2022/12/27 09:49:29;;;;;;;;;18.00;13.75;;;;;8.30;70.02;102555.88;4935187;28;1142068;-47
2022/12/27 09:52:01;;;;;;;;;19.75;17.00;;;;;8.72;68.32;102555.19;4975341;28;45203;-47
2022/12/27 09:54:43;;;;;;;;;17.00;11.50;;;;;9.27;67.61;102562.53;4975574;28;45290;-45
2022/12/27 09:57:20;;;;;;;;;10.00;9.25;;;;;9.56;65.57;102555.41;4975035;28;46523;-47
2022/12/27 09:59:51;;;;;;;;;17.50;13.00;;;;;9.70;65.27;102538.63;4975173;28;45353;-49
2022/12/27 10:02:22;;;;;;;;;14.25;11.75;;;;;10.06;64.27;102546.03;4975064;28;45576;-47
2022/12/27 10:04:50;;;;;;;;;13.00;11.50;;;;;10.49;63.10;102536.13;4975081;28;45457;-51
2022/12/27 10:07:30;;;;;;;;;21.67;12.67;;;;;10.99;62.09;102537.16;4974761;28;47315;-59
2022/12/27 10:10:37;;;;;;;;;10.67;10.67;;;;;11.33;61.08;102534.81;4975062;28;45408;-48
2022/12/27 10:13:42;;;;;;;;;16.00;14.00;;;;;11.66;60.31;102517.38;4975159;28;45330;-47
2022/12/27 10:16:27;;;;;;;;;12.33;11.00;;;;;12.14;59.00;102521.00;4967694;28;45597;-48
2022/12/27 10:19:30;;;;;;;;;16.67;13.33;;;;;12.49;56.96;102517.50;4974340;28;45477;-49
2022/12/27 10:22:34;;;;;;;;;15.00;11.00;;;;;12.96;55.44;102513.84;4975325;28;45261;-49
2022/12/27 10:25:03;;;;;;;;;11.00;11.00;;;;;13.42;54.86;102506.75;4953642;28;45404;-49
2022/12/27 10:27:30;;;;;;;;;16.33;10.00;;;;;13.77;54.23;102501.22;4953871;28;45614;-49
2022/12/27 10:29:58;;;;;;;;;9.33;9.00;;;;;13.81;54.30;102512.53;4953335;28;46210;-49
2022/12/27 10:32:23;;;;;;;;;9.00;8.33;;;;;13.98;52.70;102509.34;4953552;28;45393;-49
2022/12/27 10:34:54;;;;;;;;;12.00;10.00;;;;;13.94;52.24;102494.50;4953407;28;45308;-46
2022/12/27 10:37:20;;;;;;;;;8.00;8.00;;;;;14.08;51.60;102504.94;4953914;28;45281;-47
2022/12/27 10:39:45;;;;;;;;;9.67;5.67;;;;;14.26;52.79;102499.88;4953232;28;45339;-49
2022/12/27 10:42:40;;;;;;;;;10.00;7.00;;;;;14.15;51.09;102490.06;4936721;28;45434;-47
2022/12/27 10:45:35;;;;;;;;;12.67;8.67;;;;;13.85;51.62;102488.09;4936999;28;45390;-46
2022/12/27 10:48:18;;;;;;;;;9.00;9.00;;;;;13.82;52.74;102487.47;4953091;28;45455;-60
2022/12/27 10:50:49;;;;;;;;;10.33;9.33;;;;;14.02;52.43;102491.22;4952777;28;46190;-45
2022/12/27 10:53:32;;;;;;;;;12.67;9.00;;;;;14.32;51.32;102485.97;4953166;28;45441;-46
2022/12/27 10:56:11;;;;;;;;;9.67;7.67;;;;;14.25;50.49;102489.31;4965622;28;45327;-49
2022/12/27 10:58:50;;;;;;;;;12.00;8.67;;;;;14.41;49.65;102495.94;4974865;28;45264;-47
2022/12/27 11:01:22;;;;;;;;;9.33;7.33;;;;;14.66;50.02;102491.19;4974415;28;45377;-49
2022/12/27 11:03:48;;;;;;;;;8.67;8.00;;;;;14.86;48.87;102481.44;4974279;28;45440;-46
2022/12/27 11:06:23;;;;;;;;;14.67;9.00;;;;;15.08;49.44;102500.03;4974610;28;45317;-50
2022/12/27 11:08:50;;;;;;;;;10.33;9.00;;;;;15.33;50.50;102489.84;4975076;28;45203;-55
2022/12/27 11:11:22;;;;;;;;;8.67;8.00;;;;;15.54;47.72;102495.16;4974216;28;46558;-48
2022/12/27 11:13:49;;;;;;;;;9.00;8.00;;;;;16.04;46.71;102487.09;4974660;28;45278;-48
2022/12/27 11:16:34;;;;;;;;;9.00;8.00;;;;;16.35;46.08;102493.16;4974721;28;45398;-50
2022/12/27 11:19:00;;;;;;;;;7.67;7.33;;;;;16.71;45.18;102486.22;4974585;28;45419;-51
2022/12/27 11:21:27;;;;;;;;;10.33;7.00;;;;;16.87;44.09;102489.19;4974248;28;45320;-51
2022/12/27 11:23:56;;;;;;;;;9.67;5.33;;;;;17.14;44.17;102476.78;4974373;28;45454;-50
2022/12/27 11:26:50;;;;;;;;;4.67;4.00;;;;;17.43;43.42;102465.88;4974572;28;45320;-50
2022/12/27 11:29:18;;;;;;;;;5.00;5.00;;;;;17.59;42.72;102455.31;4974374;28;45570;-50
2022/12/27 11:31:47;;;;;;;;;12.33;7.00;;;;;17.70;42.18;102448.91;4973970;28;47384;-48
2022/12/27 11:34:15;;;;;;;;;12.00;8.00;;;;;17.91;41.92;102443.25;4974255;28;45469;-51
2022/12/27 11:36:44;;;;;;;;;10.33;8.00;;;;;18.11;41.43;102433.97;4974428;28;45302;-48
2022/12/27 11:39:35;;;;;;;;;10.00;10.00;;;;;18.33;41.91;102427.28;4974594;28;45402;-50
2022/12/27 11:42:04;;;;;;;;;11.00;9.67;;;;;18.56;40.72;102416.81;4973802;28;47105;-51
2022/12/27 11:44:38;;;;;;;;;12.00;9.00;;;;;18.50;40.22;102405.81;4974307;28;45588;-51
2022/12/27 11:47:31;;;;;;;;;11.33;7.00;;;;;18.46;42.25;102405.31;4974314;28;45374;-50
2022/12/27 11:50:30;;;;;;;;;9.33;9.33;;;;;18.40;41.28;102409.47;4974268;28;45544;-50
2022/12/27 11:53:27;;;;;;;;;14.00;10.67;;;;;18.35;41.83;102408.25;4973670;28;46020;-50
2022/12/27 11:56:10;;;;;;;;;10.00;8.33;;;;;18.25;39.84;102413.75;4973961;28;45222;-48
2022/12/27 11:58:51;;;;;;;;;14.00;11.67;;;;;17.71;41.45;102396.75;4974132;28;45308;-48
2022/12/27 12:01:28;;;;;;;;;10.00;10.00;;;;;17.43;41.72;102414.78;4974105;28;45516;-49
2022/12/27 12:04:18;;;;;;;;;18.00;12.00;;;;;16.89;43.57;102419.13;4973609;28;46212;-48
2022/12/27 12:07:11;;;;;;;;;14.00;11.33;;;;;16.38;44.72;102415.00;4973643;28;45369;-49
2022/12/27 12:10:04;;;;;;;;;10.67;10.00;;;;;15.85;45.22;102410.13;4973871;28;45292;-49
2022/12/27 12:12:56;;;;;;;;;18.00;12.67;;;;;15.50;46.54;102418.63;4973819;28;45308;-49
2022/12/27 12:15:59;;;;;;;;;15.67;12.67;;;;;15.31;46.99;102427.50;4973211;28;47234;-48
2022/12/27 12:19:03;;;;;;;;;16.67;13.67;;;;;15.15;47.00;102415.44;4973498;28;45321;-51
2022/12/27 12:21:58;;;;;;;;;12.33;11.67;;;;;14.93;47.59;102415.63;4932443;28;45547;-59
2022/12/27 12:24:32;;;;;;;;;15.00;13.67;;;;;14.86;48.10;102415.31;4933247;28;45360;-51
2022/12/27 12:27:03;;;;;;;;;16.33;14.33;;;;;14.81;48.51;102422.91;4932178;28;45944;-47
2022/12/27 12:29:47;;;;;;;;;8.67;8.00;;;;;14.87;47.71;102418.84;4932334;28;45459;-52
2022/12/27 12:32:21;;;;;;;;;7.00;4.33;;;;;14.81;47.98;102411.34;4932365;28;45405;-49
2022/12/27 12:35:05;;;;;;;;;13.33;6.00;;;;;14.80;48.35;102399.78;4932443;28;45520;-52
2022/12/27 12:37:55;;;;;;;;;9.33;4.33;;;;;14.83;47.60;102398.66;4932772;28;46090;-48
2022/12/27 12:40:44;;;;;;;;;8.00;7.00;;;;;14.77;47.54;102377.75;4932949;28;45466;-47
2022/12/27 12:43:15;;;;;;;;;7.33;5.00;;;;;14.71;48.29;102381.84;4935279;28;45479;-50
2022/12/27 12:45:57;;;;;;;;;5.00;5.00;;;;;14.60;48.27;102372.03;4935239;28;45304;-52
2022/12/27 12:48:50;;;;;;;;;11.00;7.00;;;;;14.45;48.09;102374.22;4919158;28;46418;-53
2022/12/27 12:51:52;;;;;;;;;4.00;4.00;;;;;14.39;49.12;102365.84;4935016;28;45426;-48
2022/12/27 12:54:28;;;;;;;;;6.00;3.00;;;;;14.34;48.03;102362.72;4935555;28;45672;-50
2022/12/27 12:57:08;;;;;;;;;2.67;1.00;;;;;14.26;48.54;102357.16;4935504;28;45377;-49
2022/12/27 12:59:55;;;;;;;;;2.33;2.33;;;;;14.01;48.90;102353.91;4971213;28;45374;-52
2022/12/27 13:02:20;;;;;;;;;2.00;1.00;;;;;13.83;49.65;102353.63;4975977;28;45418;-50
2022/12/27 13:05:13;;;;;;;;;3.00;3.00;;;;;13.62;49.23;102348.25;4975892;28;45181;-48
2022/12/27 13:08:06;;;;;;;;;3.00;2.00;;;;;13.51;49.40;102342.09;4975977;28;45545;-51
2022/12/27 13:11:00;;;;;;;;;3.00;2.67;;;;;13.39;49.65;102341.25;4975646;28;47184;-50
2022/12/27 13:13:32;;;;;;;;;7.67;4.67;;;;;13.22;50.36;102346.16;4975612;28;45240;-49
2022/12/27 13:16:04;;;;;;;;;4.00;3.33;;;;;13.11;50.70;102342.66;4976088;28;45268;-48
2022/12/27 13:19:00;;;;;;;;;7.00;3.00;;;;;12.92;51.04;102336.09;4976261;28;45263;-47
2022/12/27 13:21:54;;;;;;;;;4.00;2.33;;;;;12.80;51.02;102337.06;4975675;28;45326;-48
2022/12/27 13:24:41;;;;;;;;;3.67;2.33;;;;;12.71;52.10;102332.47;4953897;28;45309;-48
2022/12/27 13:27:24;;;;;;;;;9.33;3.67;;;;;12.63;52.10;102324.22;4954152;28;45497;-52
2022/12/27 13:29:59;;;;;;;;;2.67;2.00;;;;;12.50;52.20;102337.69;4954820;28;45371;-53